sensor_id;sensor_type;location;lat;lon;timestamp;temperature;humidity
1950;DHT22;975;48.760;9.152;2023-04-01T00:02:09;9.60;99.90
1950;DHT22;975;48.760;9.152;2023-04-01T00:05:02;9.50;99.90
1950;DHT22;975;48.760;9.152;2023-04-01T00:08:08;9.50;99.90
1950;DHT22;975;48.760;9.152;2023-04-01T00:11:07;9.60;99.90
1950;DHT22;975;48.760;9.152;2023-04-01T00:14:08;9.60;99.90
1950;DHT22;975;48.760;9.152;2023-04-01T00:17:02;9.70;99.90
1950;DHT22;975;48.760;9.152;2023-04-01T00:20:00;9.70;99.90
1950;DHT22;975;48.760;9.152;2023-04-01T00:22:56;9.70;99.90
1950;DHT22;975;48.760;9.152;2023-04-01T00:26:06;9.70;99.90
1950;DHT22;975;48.760;9.152;2023-04-01T00:29:00;9.80;99.90
1950;DHT22;975;48.760;9.152;2023-04-01T00:31:52;9.80;99.90
1950;DHT22;975;48.760;9.152;2023-04-01T00:34:40;9.90;99.90
1950;DHT22;975;48.760;9.152;2023-04-01T00:37:28;9.90;99.90
1950;DHT22;975;48.760;9.152;2023-04-01T00:40:26;9.80;99.90
1950;DHT22;975;48.760;9.152;2023-04-01T00:43:16;9.70;99.90
1950;DHT22;975;48.760;9.152;2023-04-01T00:46:05;9.90;99.90
1950;DHT22;975;48.760;9.152;2023-04-01T00:48:55;9.80;99.90
1950;DHT22;975;48.760;9.152;2023-04-01T00:51:45;9.90;99.90
1950;DHT22;975;48.760;9.152;2023-04-01T00:54:34;10.00;99.90
1950;DHT22;975;48.760;9.152;2023-04-01T00:57:29;10.10;99.90
1950;DHT22;975;48.760;9.152;2023-04-01T01:00:21;10.10;99.90
1950;DHT22;975;48.760;9.152;2023-04-01T01:03:09;10.00;99.90
1950;DHT22;975;48.760;9.152;2023-04-01T01:09:19;10.00;99.90
1950;DHT22;975;48.760;9.152;2023-04-01T01:12:13;10.00;99.90
1950;DHT22;975;48.760;9.152;2023-04-01T01:15:08;9.90;99.90
1950;DHT22;975;48.760;9.152;2023-04-01T01:18:04;9.90;99.90
1950;DHT22;975;48.760;9.152;2023-04-01T01:21:21;9.90;99.90
1950;DHT22;975;48.760;9.152;2023-04-01T01:24:28;9.90;99.90
1950;DHT22;975;48.760;9.152;2023-04-01T01:27:17;9.90;99.90
1950;DHT22;975;48.760;9.152;2023-04-01T01:30:26;9.90;99.90
1950;DHT22;975;48.760;9.152;2023-04-01T01:33:31;10.00;99.90
1950;DHT22;975;48.760;9.152;2023-04-01T01:36:25;9.90;99.90
1950;DHT22;975;48.760;9.152;2023-04-01T01:39:16;9.80;99.90
1950;DHT22;975;48.760;9.152;2023-04-01T01:42:06;9.80;99.90
1950;DHT22;975;48.760;9.152;2023-04-01T01:44:55;9.90;99.90
1950;DHT22;975;48.760;9.152;2023-04-01T01:47:46;9.90;99.90
1950;DHT22;975;48.760;9.152;2023-04-01T01:50:33;9.70;99.90
1950;DHT22;975;48.760;9.152;2023-04-01T01:53:24;9.80;99.90
1950;DHT22;975;48.760;9.152;2023-04-01T01:56:12;9.90;99.90
1950;DHT22;975;48.760;9.152;2023-04-01T01:59:02;9.80;99.90
1950;DHT22;975;48.760;9.152;2023-04-01T02:01:53;9.90;99.90
1950;DHT22;975;48.760;9.152;2023-04-01T02:04:43;9.90;99.90
1950;DHT22;975;48.760;9.152;2023-04-01T02:07:34;9.80;99.90
1950;DHT22;975;48.760;9.152;2023-04-01T02:10:25;9.80;99.90
1950;DHT22;975;48.760;9.152;2023-04-01T02:13:17;9.80;99.90
1950;DHT22;975;48.760;9.152;2023-04-01T02:16:10;9.70;99.90
1950;DHT22;975;48.760;9.152;2023-04-01T02:18:59;9.70;99.90
1950;DHT22;975;48.760;9.152;2023-04-01T02:21:50;9.60;99.90
1950;DHT22;975;48.760;9.152;2023-04-01T02:24:39;9.70;99.90
1950;DHT22;975;48.760;9.152;2023-04-01T02:27:30;9.60;99.90
1950;DHT22;975;48.760;9.152;2023-04-01T02:30:18;9.60;99.90
1950;DHT22;975;48.760;9.152;2023-04-01T02:33:06;9.50;99.90
1950;DHT22;975;48.760;9.152;2023-04-01T02:35:54;9.40;99.90
1950;DHT22;975;48.760;9.152;2023-04-01T02:38:43;9.40;99.90
1950;DHT22;975;48.760;9.152;2023-04-01T02:41:31;9.40;99.90
1950;DHT22;975;48.760;9.152;2023-04-01T02:44:20;9.30;99.90
1950;DHT22;975;48.760;9.152;2023-04-01T02:47:08;9.20;99.90
1950;DHT22;975;48.760;9.152;2023-04-01T02:49:55;9.10;99.90
1950;DHT22;975;48.760;9.152;2023-04-01T02:52:44;9.20;99.90
1950;DHT22;975;48.760;9.152;2023-04-01T02:55:32;9.20;99.90
1950;DHT22;975;48.760;9.152;2023-04-01T02:58:20;9.20;99.90
1950;DHT22;975;48.760;9.152;2023-04-01T03:01:09;9.20;99.90
1950;DHT22;975;48.760;9.152;2023-04-01T03:03:57;9.10;99.90
1950;DHT22;975;48.760;9.152;2023-04-01T03:06:44;9.20;99.90
1950;DHT22;975;48.760;9.152;2023-04-01T03:09:32;9.20;99.90
1950;DHT22;975;48.760;9.152;2023-04-01T03:12:20;9.20;99.90
1950;DHT22;975;48.760;9.152;2023-04-01T09:08:03;9.30;99.90
1950;DHT22;975;48.760;9.152;2023-04-01T09:11:26;9.80;99.90
1950;DHT22;975;48.760;9.152;2023-04-01T09:14:31;9.90;99.90
1950;DHT22;975;48.760;9.152;2023-04-01T09:17:44;10.10;99.90
1950;DHT22;975;48.760;9.152;2023-04-01T09:20:50;10.20;99.90
1950;DHT22;975;48.760;9.152;2023-04-01T09:27:15;10.60;99.90
1950;DHT22;975;48.760;9.152;2023-04-01T09:30:37;10.60;99.90
1950;DHT22;975;48.760;9.152;2023-04-01T09:33:58;10.60;99.90
1950;DHT22;975;48.760;9.152;2023-04-01T09:36:56;10.90;99.90
1950;DHT22;975;48.760;9.152;2023-04-01T09:40:01;11.20;99.90
1950;DHT22;975;48.760;9.152;2023-04-01T09:43:14;11.20;99.90
1950;DHT22;975;48.760;9.152;2023-04-01T09:46:21;11.00;99.90
1950;DHT22;975;48.760;9.152;2023-04-01T09:52:33;11.20;99.90
1950;DHT22;975;48.760;9.152;2023-04-01T10:06:14;10.90;99.90
1950;DHT22;975;48.760;9.152;2023-04-01T10:13:08;11.10;99.90
1950;DHT22;975;48.760;9.152;2023-04-01T10:16:22;11.30;99.90
1950;DHT22;975;48.760;9.152;2023-04-01T10:23:00;11.40;99.90
1950;DHT22;975;48.760;9.152;2023-04-01T10:29:36;11.40;99.90
1950;DHT22;975;48.760;9.152;2023-04-01T10:46:39;11.70;99.90
1950;DHT22;975;48.760;9.152;2023-04-01T10:49:56;11.70;99.90
1950;DHT22;975;48.760;9.152;2023-04-01T10:53:21;11.80;99.90
1950;DHT22;975;48.760;9.152;2023-04-01T10:56:39;11.60;99.90
1950;DHT22;975;48.760;9.152;2023-04-01T11:14:22;11.50;99.90
1950;DHT22;975;48.760;9.152;2023-04-01T11:17:55;11.50;99.90
1950;DHT22;975;48.760;9.152;2023-04-01T11:24:34;12.00;99.90
1950;DHT22;975;48.760;9.152;2023-04-01T11:27:40;12.30;99.90
1950;DHT22;975;48.760;9.152;2023-04-01T11:30:40;12.60;99.90
1950;DHT22;975;48.760;9.152;2023-04-01T11:33:31;12.50;99.90
1950;DHT22;975;48.760;9.152;2023-04-01T11:36:33;12.50;99.90
1950;DHT22;975;48.760;9.152;2023-04-01T11:39:33;12.60;99.90
1950;DHT22;975;48.760;9.152;2023-04-01T11:42:30;12.80;99.90
1950;DHT22;975;48.760;9.152;2023-04-01T11:45:34;13.10;99.90
1950;DHT22;975;48.760;9.152;2023-04-01T11:48:37;13.00;99.90
1950;DHT22;975;48.760;9.152;2023-04-01T11:51:40;12.90;99.90
1950;DHT22;975;48.760;9.152;2023-04-01T11:54:42;12.90;99.90
1950;DHT22;975;48.760;9.152;2023-04-01T11:57:46;12.80;99.90
1950;DHT22;975;48.760;9.152;2023-04-01T12:07:37;12.40;99.90
1950;DHT22;975;48.760;9.152;2023-04-01T12:10:34;12.30;99.90
1950;DHT22;975;48.760;9.152;2023-04-01T12:13:35;12.20;99.90
1950;DHT22;975;48.760;9.152;2023-04-01T12:16:37;12.30;99.90
1950;DHT22;975;48.760;9.152;2023-04-01T12:19:39;12.40;99.90
1950;DHT22;975;48.760;9.152;2023-04-01T12:22:41;12.40;99.90
1950;DHT22;975;48.760;9.152;2023-04-01T12:25:56;12.20;99.90
1950;DHT22;975;48.760;9.152;2023-04-01T12:28:59;12.20;99.90
1950;DHT22;975;48.760;9.152;2023-04-01T12:31:55;12.30;99.90
1950;DHT22;975;48.760;9.152;2023-04-01T12:34:52;12.30;99.90
1950;DHT22;975;48.760;9.152;2023-04-01T12:37:54;12.40;99.90
1950;DHT22;975;48.760;9.152;2023-04-01T12:40:51;12.70;99.90
1950;DHT22;975;48.760;9.152;2023-04-01T12:44:11;12.70;99.90
1950;DHT22;975;48.760;9.152;2023-04-01T12:47:24;12.80;99.90
1950;DHT22;975;48.760;9.152;2023-04-01T12:50:25;12.80;99.90
1950;DHT22;975;48.760;9.152;2023-04-01T12:53:47;12.90;99.90
1950;DHT22;975;48.760;9.152;2023-04-01T12:56:54;12.60;99.90
1950;DHT22;975;48.760;9.152;2023-04-01T12:59:59;12.70;99.90
1950;DHT22;975;48.760;9.152;2023-04-01T13:03:10;13.00;99.70
1950;DHT22;975;48.760;9.152;2023-04-01T13:06:32;13.20;99.60
1950;DHT22;975;48.760;9.152;2023-04-01T13:09:41;12.90;99.10
1950;DHT22;975;48.760;9.152;2023-04-01T13:12:48;12.60;99.10
1950;DHT22;975;48.760;9.152;2023-04-01T13:15:42;12.40;99.90
1950;DHT22;975;48.760;9.152;2023-04-01T13:18:54;12.40;99.80
1950;DHT22;975;48.760;9.152;2023-04-01T13:22:06;12.40;99.90
1950;DHT22;975;48.760;9.152;2023-04-01T13:25:01;12.50;99.90
1950;DHT22;975;48.760;9.152;2023-04-01T13:27:58;12.40;99.90
1950;DHT22;975;48.760;9.152;2023-04-01T13:30:53;12.50;99.90
1950;DHT22;975;48.760;9.152;2023-04-01T13:33:47;12.60;99.90
1950;DHT22;975;48.760;9.152;2023-04-01T13:36:44;12.70;99.90
1950;DHT22;975;48.760;9.152;2023-04-01T13:40:12;12.80;99.90
1950;DHT22;975;48.760;9.152;2023-04-01T13:43:14;12.80;99.40
1950;DHT22;975;48.760;9.152;2023-04-01T13:46:18;12.80;99.60
1950;DHT22;975;48.760;9.152;2023-04-01T13:49:36;12.90;99.20
1950;DHT22;975;48.760;9.152;2023-04-01T13:52:51;12.80;99.10
1950;DHT22;975;48.760;9.152;2023-04-01T13:55:57;12.80;99.10
1950;DHT22;975;48.760;9.152;2023-04-01T13:58:57;12.80;99.40
1950;DHT22;975;48.760;9.152;2023-04-01T14:01:52;12.80;99.70
1950;DHT22;975;48.760;9.152;2023-04-01T14:04:53;12.80;99.70
1950;DHT22;975;48.760;9.152;2023-04-01T14:07:56;12.60;99.20
1950;DHT22;975;48.760;9.152;2023-04-01T14:10:55;12.60;99.30
1950;DHT22;975;48.760;9.152;2023-04-01T14:13:56;12.40;99.60
1950;DHT22;975;48.760;9.152;2023-04-01T14:17:10;12.60;99.90
1950;DHT22;975;48.760;9.152;2023-04-01T14:20:20;12.70;99.30
1950;DHT22;975;48.760;9.152;2023-04-01T14:23:29;12.50;99.90
1950;DHT22;975;48.760;9.152;2023-04-01T14:26:50;12.50;99.90
1950;DHT22;975;48.760;9.152;2023-04-01T14:29:52;12.50;99.90
1950;DHT22;975;48.760;9.152;2023-04-01T14:32:49;12.50;99.90
1950;DHT22;975;48.760;9.152;2023-04-01T14:35:46;12.40;99.90
1950;DHT22;975;48.760;9.152;2023-04-01T14:38:50;12.50;99.90
1950;DHT22;975;48.760;9.152;2023-04-01T14:41:47;12.60;99.90
1950;DHT22;975;48.760;9.152;2023-04-01T14:44:51;12.60;99.90
1950;DHT22;975;48.760;9.152;2023-04-01T14:47:47;12.50;99.90
1950;DHT22;975;48.760;9.152;2023-04-01T14:50:42;12.40;99.90
1950;DHT22;975;48.760;9.152;2023-04-01T14:53:33;12.40;99.90
1950;DHT22;975;48.760;9.152;2023-04-01T14:56:39;12.40;99.90
1950;DHT22;975;48.760;9.152;2023-04-01T14:59:29;12.50;99.90
1950;DHT22;975;48.760;9.152;2023-04-01T15:02:36;12.60;99.90
1950;DHT22;975;48.760;9.152;2023-04-01T15:05:32;12.80;99.70
1950;DHT22;975;48.760;9.152;2023-04-01T15:08:27;12.60;99.60
1950;DHT22;975;48.760;9.152;2023-04-01T15:11:24;12.40;99.70
1950;DHT22;975;48.760;9.152;2023-04-01T15:14:36;12.40;99.90
1950;DHT22;975;48.760;9.152;2023-04-01T15:17:48;12.50;99.90
1950;DHT22;975;48.760;9.152;2023-04-01T15:20:59;12.70;99.80
1950;DHT22;975;48.760;9.152;2023-04-01T15:24:06;12.70;99.90
1950;DHT22;975;48.760;9.152;2023-04-01T15:27:12;12.50;99.90
1950;DHT22;975;48.760;9.152;2023-04-01T15:30:21;12.30;99.90
1950;DHT22;975;48.760;9.152;2023-04-01T15:33:38;12.10;99.90
1950;DHT22;975;48.760;9.152;2023-04-01T15:36:33;12.30;99.90
1950;DHT22;975;48.760;9.152;2023-04-01T15:39:37;12.30;99.90
1950;DHT22;975;48.760;9.152;2023-04-01T15:42:35;12.40;99.90
1950;DHT22;975;48.760;9.152;2023-04-01T15:45:42;12.30;99.90
1950;DHT22;975;48.760;9.152;2023-04-01T15:48:46;12.20;99.90
1950;DHT22;975;48.760;9.152;2023-04-01T15:51:54;12.20;99.90
1950;DHT22;975;48.760;9.152;2023-04-01T15:55:13;12.20;99.90
1950;DHT22;975;48.760;9.152;2023-04-01T15:58:25;12.30;99.90
1950;DHT22;975;48.760;9.152;2023-04-01T16:01:27;12.40;99.90
1950;DHT22;975;48.760;9.152;2023-04-01T16:08:07;12.00;99.90
1950;DHT22;975;48.760;9.152;2023-04-01T16:11:08;11.80;99.90
1950;DHT22;975;48.760;9.152;2023-04-01T16:14:11;11.90;99.90
1950;DHT22;975;48.760;9.152;2023-04-01T16:17:23;11.80;99.90
1950;DHT22;975;48.760;9.152;2023-04-01T16:20:19;11.90;99.90
1950;DHT22;975;48.760;9.152;2023-04-01T16:23:16;12.00;99.90
1950;DHT22;975;48.760;9.152;2023-04-01T16:26:16;12.00;99.90
1950;DHT22;975;48.760;9.152;2023-04-01T16:29:17;11.90;99.90
1950;DHT22;975;48.760;9.152;2023-04-01T16:32:23;11.90;99.90
1950;DHT22;975;48.760;9.152;2023-04-01T16:35:22;12.00;99.90
1950;DHT22;975;48.760;9.152;2023-04-01T16:38:20;11.90;99.90
1950;DHT22;975;48.760;9.152;2023-04-01T16:41:16;12.00;99.90
1950;DHT22;975;48.760;9.152;2023-04-01T16:44:18;12.10;99.90
1950;DHT22;975;48.760;9.152;2023-04-01T16:47:10;12.30;99.90
1950;DHT22;975;48.760;9.152;2023-04-01T16:50:12;12.40;99.90
1950;DHT22;975;48.760;9.152;2023-04-01T16:53:08;12.50;99.90
1950;DHT22;975;48.760;9.152;2023-04-01T16:56:07;12.50;99.90
1950;DHT22;975;48.760;9.152;2023-04-01T16:59:03;12.50;99.90
1950;DHT22;975;48.760;9.152;2023-04-01T17:02:02;12.50;99.90
1950;DHT22;975;48.760;9.152;2023-04-01T17:04:56;12.50;99.90
1950;DHT22;975;48.760;9.152;2023-04-01T17:07:49;12.50;99.90
1950;DHT22;975;48.760;9.152;2023-04-01T17:10:48;12.30;99.90
1950;DHT22;975;48.760;9.152;2023-04-01T17:13:46;12.20;99.90
1950;DHT22;975;48.760;9.152;2023-04-01T17:20:13;12.10;99.90
1950;DHT22;975;48.760;9.152;2023-04-01T17:23:14;12.10;99.90
1950;DHT22;975;48.760;9.152;2023-04-01T17:26:16;12.20;99.90
1950;DHT22;975;48.760;9.152;2023-04-01T17:29:12;12.00;99.90
1950;DHT22;975;48.760;9.152;2023-04-01T17:32:11;11.90;99.90
1950;DHT22;975;48.760;9.152;2023-04-01T17:35:06;11.90;99.90
1950;DHT22;975;48.760;9.152;2023-04-01T17:38:06;11.70;99.90
1950;DHT22;975;48.760;9.152;2023-04-01T17:41:03;11.60;99.90
1950;DHT22;975;48.760;9.152;2023-04-01T17:43:58;11.70;99.90
1950;DHT22;975;48.760;9.152;2023-04-01T17:47:31;11.70;99.90
1950;DHT22;975;48.760;9.152;2023-04-01T17:50:24;11.60;99.90
1950;DHT22;975;48.760;9.152;2023-04-01T18:04:57;11.90;99.90
1950;DHT22;975;48.760;9.152;2023-04-01T18:11:11;12.00;99.90
1950;DHT22;975;48.760;9.152;2023-04-01T18:14:23;11.90;99.90
1950;DHT22;975;48.760;9.152;2023-04-01T18:17:25;11.80;99.90
1950;DHT22;975;48.760;9.152;2023-04-01T18:20:27;11.60;99.90
1950;DHT22;975;48.760;9.152;2023-04-01T18:23:26;11.50;99.90
1950;DHT22;975;48.760;9.152;2023-04-01T18:26:22;11.40;99.90
1950;DHT22;975;48.760;9.152;2023-04-01T18:29:24;11.30;99.90
1950;DHT22;975;48.760;9.152;2023-04-01T18:32:25;11.30;99.90
1950;DHT22;975;48.760;9.152;2023-04-01T18:35:24;11.30;99.90
1950;DHT22;975;48.760;9.152;2023-04-01T18:38:16;11.30;99.90
1950;DHT22;975;48.760;9.152;2023-04-01T18:41:13;11.20;99.90
1950;DHT22;975;48.760;9.152;2023-04-01T18:44:12;11.00;99.90
1950;DHT22;975;48.760;9.152;2023-04-01T18:47:21;10.80;99.90
1950;DHT22;975;48.760;9.152;2023-04-01T18:50:21;10.70;99.90
1950;DHT22;975;48.760;9.152;2023-04-01T18:53:17;10.50;99.90
1950;DHT22;975;48.760;9.152;2023-04-01T18:56:06;10.40;99.90
1950;DHT22;975;48.760;9.152;2023-04-01T18:59:03;10.40;99.90
1950;DHT22;975;48.760;9.152;2023-04-01T19:02:01;10.50;99.90
1950;DHT22;975;48.760;9.152;2023-04-01T19:05:00;10.30;99.90
1950;DHT22;975;48.760;9.152;2023-04-01T19:07:52;10.10;99.90
1950;DHT22;975;48.760;9.152;2023-04-01T19:10:44;10.10;99.90
1950;DHT22;975;48.760;9.152;2023-04-01T19:13:59;10.10;99.90
1950;DHT22;975;48.760;9.152;2023-04-01T19:16:54;10.10;99.90
1950;DHT22;975;48.760;9.152;2023-04-01T19:19:54;10.10;99.90
1950;DHT22;975;48.760;9.152;2023-04-01T19:23:00;10.10;99.90
1950;DHT22;975;48.760;9.152;2023-04-01T19:25:55;10.10;99.90
1950;DHT22;975;48.760;9.152;2023-04-01T19:28:48;10.10;99.90
1950;DHT22;975;48.760;9.152;2023-04-01T19:31:54;10.10;99.90
1950;DHT22;975;48.760;9.152;2023-04-01T19:34:52;10.10;99.90
1950;DHT22;975;48.760;9.152;2023-04-01T19:37:51;10.10;99.90
1950;DHT22;975;48.760;9.152;2023-04-01T19:40:53;10.10;99.90
1950;DHT22;975;48.760;9.152;2023-04-01T19:43:52;10.10;99.90
1950;DHT22;975;48.760;9.152;2023-04-01T19:46:48;10.00;99.90
1950;DHT22;975;48.760;9.152;2023-04-01T19:49:46;10.00;99.90
1950;DHT22;975;48.760;9.152;2023-04-01T19:52:41;9.90;99.90
1950;DHT22;975;48.760;9.152;2023-04-01T19:55:35;9.90;99.90
1950;DHT22;975;48.760;9.152;2023-04-01T19:58:31;9.90;99.90
1950;DHT22;975;48.760;9.152;2023-04-01T20:01:31;9.90;99.90
1950;DHT22;975;48.760;9.152;2023-04-01T20:04:25;9.90;99.90
1950;DHT22;975;48.760;9.152;2023-04-01T20:07:20;10.00;99.90
1950;DHT22;975;48.760;9.152;2023-04-01T20:10:10;9.90;99.90
1950;DHT22;975;48.760;9.152;2023-04-01T20:13:08;9.80;99.90
1950;DHT22;975;48.760;9.152;2023-04-01T20:16:03;9.80;99.90
1950;DHT22;975;48.760;9.152;2023-04-01T20:18:55;9.80;99.90
1950;DHT22;975;48.760;9.152;2023-04-01T20:21:45;9.80;99.90
1950;DHT22;975;48.760;9.152;2023-04-01T20:24:43;9.90;99.90
1950;DHT22;975;48.760;9.152;2023-04-01T20:27:35;9.90;99.90
1950;DHT22;975;48.760;9.152;2023-04-01T20:30:49;9.90;99.90
1950;DHT22;975;48.760;9.152;2023-04-01T20:37:30;9.80;99.90
1950;DHT22;975;48.760;9.152;2023-04-01T20:40:27;9.80;99.90
1950;DHT22;975;48.760;9.152;2023-04-01T20:43:52;9.70;99.90
1950;DHT22;975;48.760;9.152;2023-04-01T20:46:52;9.70;99.90
1950;DHT22;975;48.760;9.152;2023-04-01T20:49:43;9.70;99.90
1950;DHT22;975;48.760;9.152;2023-04-01T20:52:48;9.70;99.90
1950;DHT22;975;48.760;9.152;2023-04-01T20:56:15;9.70;99.90
1950;DHT22;975;48.760;9.152;2023-04-01T21:09:36;9.80;99.90
1950;DHT22;975;48.760;9.152;2023-04-01T21:12:35;9.90;99.90
1950;DHT22;975;48.760;9.152;2023-04-01T21:15:43;9.80;99.90
1950;DHT22;975;48.760;9.152;2023-04-01T21:18:50;9.80;99.90
1950;DHT22;975;48.760;9.152;2023-04-01T21:25:22;9.90;99.90
1950;DHT22;975;48.760;9.152;2023-04-01T21:28:41;9.90;99.90
1950;DHT22;975;48.760;9.152;2023-04-01T21:31:45;9.90;99.90
1950;DHT22;975;48.760;9.152;2023-04-01T21:34:48;9.80;99.90
1950;DHT22;975;48.760;9.152;2023-04-01T21:37:53;9.90;99.90
1950;DHT22;975;48.760;9.152;2023-04-01T21:41:18;9.90;99.90
1950;DHT22;975;48.760;9.152;2023-04-01T21:51:35;10.10;99.90
1950;DHT22;975;48.760;9.152;2023-04-01T21:58:24;9.90;
1950;DHT22;975;48.760;9.152;2023-04-01T22:01:46;9.90;99.90
1950;DHT22;975;48.760;9.152;2023-04-01T22:04:44;9.70;99.90
1950;DHT22;975;48.760;9.152;2023-04-01T22:07:37;9.70;99.90
1950;DHT22;975;48.760;9.152;2023-04-01T22:10:30;9.60;99.90
1950;DHT22;975;48.760;9.152;2023-04-01T22:13:31;9.70;99.90
1950;DHT22;975;48.760;9.152;2023-04-01T22:19:38;9.80;99.90
1950;DHT22;975;48.760;9.152;2023-04-01T22:22:45;9.80;99.90
1950;DHT22;975;48.760;9.152;2023-04-01T22:25:40;9.80;99.90
1950;DHT22;975;48.760;9.152;2023-04-01T22:28:34;9.90;99.90
1950;DHT22;975;48.760;9.152;2023-04-01T22:31:29;9.90;99.90
1950;DHT22;975;48.760;9.152;2023-04-01T22:34:27;9.90;99.90
1950;DHT22;975;48.760;9.152;2023-04-01T22:37:25;10.00;99.90
1950;DHT22;975;48.760;9.152;2023-04-01T22:40:23;9.90;99.90
1950;DHT22;975;48.760;9.152;2023-04-01T22:43:19;10.00;99.90
1950;DHT22;975;48.760;9.152;2023-04-01T22:46:23;10.00;99.90
1950;DHT22;975;48.760;9.152;2023-04-01T22:49:27;10.10;99.90
1950;DHT22;975;48.760;9.152;2023-04-01T22:52:22;10.00;99.90
1950;DHT22;975;48.760;9.152;2023-04-01T22:55:15;10.00;99.90
1950;DHT22;975;48.760;9.152;2023-04-01T22:58:19;10.00;99.90
1950;DHT22;975;48.760;9.152;2023-04-01T23:01:13;10.00;99.90
1950;DHT22;975;48.760;9.152;2023-04-01T23:04:03;9.90;99.90
1950;DHT22;975;48.760;9.152;2023-04-01T23:06:54;9.90;99.90
1950;DHT22;975;48.760;9.152;2023-04-01T23:09:47;9.90;99.90
1950;DHT22;975;48.760;9.152;2023-04-01T23:12:37;9.80;99.90
1950;DHT22;975;48.760;9.152;2023-04-01T23:15:29;9.80;99.90
1950;DHT22;975;48.760;9.152;2023-04-01T23:18:22;9.80;99.90
1950;DHT22;975;48.760;9.152;2023-04-01T23:21:25;9.80;99.90
1950;DHT22;975;48.760;9.152;2023-04-01T23:24:29;9.90;99.90
1950;DHT22;975;48.760;9.152;2023-04-01T23:27:36;9.90;99.90
1950;DHT22;975;48.760;9.152;2023-04-01T23:30:49;9.90;99.90
1950;DHT22;975;48.760;9.152;2023-04-01T23:33:37;9.60;99.90
1950;DHT22;975;48.760;9.152;2023-04-01T23:36:25;9.60;99.90
1950;DHT22;975;48.760;9.152;2023-04-01T23:39:23;9.60;99.90
1950;DHT22;975;48.760;9.152;2023-04-01T23:42:14;9.50;99.90
1950;DHT22;975;48.760;9.152;2023-04-01T23:45:05;9.40;99.90
1950;DHT22;975;48.760;9.152;2023-04-01T23:47:59;9.40;99.90
1950;DHT22;975;48.760;9.152;2023-04-01T23:50:47;9.40;99.90
1950;DHT22;975;48.760;9.152;2023-04-01T23:53:35;9.50;99.90
1950;DHT22;975;48.760;9.152;2023-04-01T23:56:35;9.50;99.90
1950;DHT22;975;48.760;9.152;2023-04-01T23:59:29;9.40;99.90
